Time;durP1;ratioP1;P1;durP2;ratioP2;P2;SDS_P1;SDS_P2;PMS_P1;PMS_P2;Temp;Humidity;BMP_temperature;BMP_pressure;BME280_temperature;BME280_humidity;BME280_pressure;Samples;Min_cycle;Max_cycle;Signal;HPM_P1;HPM_P2
2022/10/29 00:00:19;;;;;;;8.32;4.15;;;;;;;;;;4991504;28;20161;-78
2022/10/29 00:03:04;;;;;;;15.80;4.75;;;;;;;;;;4989465;28;20076;-84
2022/10/29 00:05:57;;;;;;;18.27;4.90;;;;;;;;;;4978752;28;20019;-76
2022/10/29 00:08:42;;;;;;;17.38;4.53;;;;;;;;;;4969660;28;20090;-84
2022/10/29 00:11:28;;;;;;;15.20;4.80;;;;;;;;;;4990066;28;20033;-83
2022/10/29 00:14:13;;;;;;;11.25;4.30;;;;;;;;;;4989256;28;20046;-84
2022/10/29 00:16:58;;;;;;;14.00;4.07;;;;;;;;;;4989415;28;20050;-83
2022/10/29 00:19:43;;;;;;;12.00;4.40;;;;;;;;;;4984281;28;20053;-85
2022/10/29 00:22:29;;;;;;;12.50;6.18;;;;;;;;;;4987525;28;20054;-74
2022/10/29 00:25:14;;;;;;;11.60;4.10;;;;;;;;;;4975435;28;20125;-78
2022/10/29 00:27:59;;;;;;;12.73;5.65;;;;;;;;;;4989361;28;20168;-78
2022/10/29 00:30:44;;;;;;;13.98;4.93;;;;;;;;;;4990102;28;20026;-79
2022/10/29 00:33:30;;;;;;;14.65;3.88;;;;;;;;;;4974794;28;20030;-79
2022/10/29 00:36:16;;;;;;;14.65;4.22;;;;;;;;;;4975947;28;20117;-78
2022/10/29 00:39:01;;;;;;;15.50;4.15;;;;;;;;;;4995804;28;20053;-78
2022/10/29 00:41:47;;;;;;;15.40;3.97;;;;;;;;;;4975111;28;20018;-77
2022/10/29 00:44:37;;;;;;;9.70;3.60;;;;;;;;;;5002089;28;20057;-79
2022/10/29 00:47:25;;;;;;;13.00;4.45;;;;;;;;;;4975159;28;20037;-77
2022/10/29 00:50:12;;;;;;;11.82;4.00;;;;;;;;;;4986505;28;20037;-77
2022/10/29 00:52:57;;;;;;;11.98;4.03;;;;;;;;;;4973813;28;20030;-77
2022/10/29 00:55:43;;;;;;;12.50;4.13;;;;;;;;;;4985692;28;20126;-78
2022/10/29 00:58:28;;;;;;;11.55;4.25;;;;;;;;;;4988438;28;20105;-83
2022/10/29 01:01:14;;;;;;;15.38;4.15;;;;;;;;;;4988355;28;20045;-76
2022/10/29 01:04:00;;;;;;;12.00;4.78;;;;;;;;;;4984247;28;20023;-87
2022/10/29 01:06:46;;;;;;;17.77;4.40;;;;;;;;;;4997254;28;20045;-85
2022/10/29 01:09:31;;;;;;;9.95;4.10;;;;;;;;;;4976465;28;20026;-84
2022/10/29 01:12:28;;;;;;;16.33;4.88;;;;;;;;;;4988751;28;20469;-84
2022/10/29 01:15:25;;;;;;;10.15;3.58;;;;;;;;;;4976724;28;20073;-82
2022/10/29 01:18:21;;;;;;;16.30;4.15;;;;;;;;;;5002902;28;20469;-78
2022/10/29 01:21:22;;;;;;;13.07;4.43;;;;;;;;;;4988381;28;20038;-78
2022/10/29 01:24:08;;;;;;;13.45;5.38;;;;;;;;;;4974886;28;20041;-78
2022/10/29 01:26:53;;;;;;;12.45;3.95;;;;;;;;;;4988341;28;20088;-78
2022/10/29 01:29:38;;;;;;;11.25;3.47;;;;;;;;;;5002502;28;20026;-77
2022/10/29 01:32:44;;;;;;;12.40;4.00;;;;;;;;;;4974907;28;20069;-79
2022/10/29 01:35:38;;;;;;;11.77;3.40;;;;;;;;;;4981270;28;20086;-78
2022/10/29 01:38:37;;;;;;;16.25;4.00;;;;;;;;;;4988060;28;20081;-82
2022/10/29 01:41:41;;;;;;;13.83;3.80;;;;;;;;;;4988120;28;20018;-84
2022/10/29 01:44:33;;;;;;;8.90;4.18;;;;;;;;;;5001739;28;20300;-83
2022/10/29 01:47:19;;;;;;;20.23;4.65;;;;;;;;;;4992139;28;20038;-84
2022/10/29 01:50:06;;;;;;;11.52;4.05;;;;;;;;;;4978336;28;20022;-84
2022/10/29 01:52:53;;;;;;;11.18;4.78;;;;;;;;;;4991060;28;20034;-85
2022/10/29 01:55:38;;;;;;;11.23;3.55;;;;;;;;;;4978163;28;20030;-77
2022/10/29 01:58:24;;;;;;;9.80;3.45;;;;;;;;;;4977265;28;20022;-77
2022/10/29 02:01:23;;;;;;;14.35;4.85;;;;;;;;;;4990741;28;20031;-77
2022/10/29 02:04:14;;;;;;;10.55;4.15;;;;;;;;;;4991076;28;20170;-77
2022/10/29 02:07:14;;;;;;;8.57;4.78;;;;;;;;;;4989821;28;20023;-77
2022/10/29 02:10:03;;;;;;;10.98;3.65;;;;;;;;;;5000690;28;20030;-76
2022/10/29 02:12:50;;;;;;;10.95;3.53;;;;;;;;;;4990785;28;20030;-77
2022/10/29 02:15:35;;;;;;;8.68;4.20;;;;;;;;;;4977635;28;20038;-77
2022/10/29 02:18:21;;;;;;;9.05;4.13;;;;;;;;;;4990414;28;20045;-77
2022/10/29 02:21:06;;;;;;;10.90;4.55;;;;;;;;;;4982982;28;20168;-76
2022/10/29 02:23:51;;;;;;;14.68;4.25;;;;;;;;;;4987720;28;20046;-77
2022/10/29 02:26:37;;;;;;;9.52;3.85;;;;;;;;;;4988619;28;20357;-79
2022/10/29 02:29:22;;;;;;;12.18;3.97;;;;;;;;;;4986672;28;20105;-77
2022/10/29 02:32:07;;;;;;;13.32;4.40;;;;;;;;;;4987456;28;20034;-73
2022/10/29 02:34:52;;;;;;;9.98;3.72;;;;;;;;;;4976667;28;20038;-78
2022/10/29 02:37:37;;;;;;;12.68;4.40;;;;;;;;;;4968164;28;20477;-78
2022/10/29 02:40:23;;;;;;;12.38;4.35;;;;;;;;;;4976420;28;20049;-78
2022/10/29 02:43:08;;;;;;;12.05;3.78;;;;;;;;;;4977153;28;20048;-79
2022/10/29 02:46:16;;;;;;;7.60;3.80;;;;;;;;;;4974997;28;20037;-79
2022/10/29 02:49:01;;;;;;;14.48;4.60;;;;;;;;;;4976242;28;20157;-77
2022/10/29 02:51:47;;;;;;;10.57;4.07;;;;;;;;;;4990747;28;20014;-77
2022/10/29 02:54:32;;;;;;;13.25;4.45;;;;;;;;;;4975902;28;20038;-79
2022/10/29 02:57:17;;;;;;;18.42;4.32;;;;;;;;;;4989312;28;20415;-78
2022/10/29 03:00:03;;;;;;;14.75;4.38;;;;;;;;;;4975938;28;20088;-77
2022/10/29 03:02:51;;;;;;;16.38;3.90;;;;;;;;;;4989946;28;20398;-77
2022/10/29 03:05:36;;;;;;;12.70;4.40;;;;;;;;;;4975168;28;20033;-79
2022/10/29 03:08:22;;;;;;;17.52;4.78;;;;;;;;;;4990555;28;20120;-78
2022/10/29 03:11:07;;;;;;;11.18;4.03;;;;;;;;;;4989610;28;20044;-78
2022/10/29 03:13:52;;;;;;;11.55;4.38;;;;;;;;;;4990461;28;20022;-78
2022/10/29 03:16:37;;;;;;;10.68;4.15;;;;;;;;;;4989675;28;20187;-78
2022/10/29 03:19:23;;;;;;;12.27;3.83;;;;;;;;;;4990378;28;20703;-78
2022/10/29 03:22:08;;;;;;;10.75;3.97;;;;;;;;;;4989743;28;20177;-77
2022/10/29 03:24:53;;;;;;;14.30;5.45;;;;;;;;;;4976706;28;20389;-78
2022/10/29 03:27:42;;;;;;;13.07;4.45;;;;;;;;;;4978222;28;20123;-76
2022/10/29 03:30:27;;;;;;;8.13;3.78;;;;;;;;;;4976329;28;20037;-73
2022/10/29 03:33:13;;;;;;;11.70;4.43;;;;;;;;;;4976772;28;20129;-74
2022/10/29 03:35:59;;;;;;;15.15;4.75;;;;;;;;;;4976563;28;20524;-73
2022/10/29 03:38:44;;;;;;;15.95;4.53;;;;;;;;;;4971499;28;20026;-74
2022/10/29 03:41:29;;;;;;;14.60;4.80;;;;;;;;;;4975752;28;20491;-73
2022/10/29 03:44:14;;;;;;;9.82;4.57;;;;;;;;;;4976422;28;20084;-76
2022/10/29 03:47:00;;;;;;;12.90;4.47;;;;;;;;;;5003133;28;20022;-85
2022/10/29 03:49:45;;;;;;;12.18;4.32;;;;;;;;;;4990376;28;20113;-86
2022/10/29 03:52:30;;;;;;;14.98;4.15;;;;;;;;;;4989557;28;20149;-85
2022/10/29 03:55:15;;;;;;;11.02;3.35;;;;;;;;;;4977281;28;20038;-84
2022/10/29 03:58:00;;;;;;;11.68;4.53;;;;;;;;;;4977470;28;20046;-84
2022/10/29 04:01:02;;;;;;;11.27;3.80;;;;;;;;;;4991656;28;20025;-85
2022/10/29 04:03:48;;;;;;;12.63;4.28;;;;;;;;;;5003598;28;20022;-83
2022/10/29 04:06:33;;;;;;;11.90;4.07;;;;;;;;;;4987997;28;20022;-78
2022/10/29 04:09:18;;;;;;;11.88;4.80;;;;;;;;;;4975487;28;20165;-77
2022/10/29 04:12:03;;;;;;;15.18;4.47;;;;;;;;;;5002770;28;20113;-77
2022/10/29 04:14:49;;;;;;;12.43;4.30;;;;;;;;;;4975607;28;20568;-77
2022/10/29 04:17:34;;;;;;;9.50;3.72;;;;;;;;;;5002566;28;20121;-78
2022/10/29 04:20:19;;;;;;;14.75;5.45;;;;;;;;;;5002964;28;20030;-78
2022/10/29 04:23:04;;;;;;;10.65;4.15;;;;;;;;;;4974927;28;20057;-78
2022/10/29 04:25:54;;;;;;;10.75;5.03;;;;;;;;;;4975109;28;20663;-75
2022/10/29 04:28:39;;;;;;;15.98;3.83;;;;;;;;;;4988253;28;20033;-75
2022/10/29 04:31:25;;;;;;;14.63;6.10;;;;;;;;;;4975831;28;20019;-75
2022/10/29 04:34:10;;;;;;;10.30;3.95;;;;;;;;;;4974324;28;20417;-76
2022/10/29 04:36:55;;;;;;;9.48;4.50;;;;;;;;;;4988634;28;20118;-76
2022/10/29 04:39:40;;;;;;;11.82;3.72;;;;;;;;;;4988144;28;20666;-73
2022/10/29 04:42:26;;;;;;;14.90;4.82;;;;;;;;;;4989364;28;20117;-84
2022/10/29 04:45:11;;;;;;;11.27;4.68;;;;;;;;;;4990358;28;20066;-85
2022/10/29 04:48:03;;;;;;;13.02;4.75;;;;;;;;;;4977043;28;20382;-86
2022/10/29 04:50:49;;;;;;;12.85;4.63;;;;;;;;;;4987555;28;20026;-83
2022/10/29 04:53:34;;;;;;;12.38;4.35;;;;;;;;;;4989958;28;20038;-84
2022/10/29 04:56:20;;;;;;;11.70;4.05;;;;;;;;;;4990025;28;20378;-84
2022/10/29 04:59:05;;;;;;;11.98;4.80;;;;;;;;;;4988336;28;20033;-77
2022/10/29 05:01:50;;;;;;;15.35;4.05;;;;;;;;;;5002404;28;20050;-80
2022/10/29 05:04:35;;;;;;;10.60;4.50;;;;;;;;;;4974398;28;20058;-79
2022/10/29 05:07:20;;;;;;;16.92;4.78;;;;;;;;;;4976998;28;20117;-81
2022/10/29 05:10:06;;;;;;;10.20;5.07;;;;;;;;;;4973889;28;20509;-79
2022/10/29 05:12:55;;;;;;;9.68;3.97;;;;;;;;;;4988073;28;20034;-78
2022/10/29 05:15:40;;;;;;;13.90;4.32;;;;;;;;;;4998866;28;20060;-76
2022/10/29 05:18:25;;;;;;;17.73;5.18;;;;;;;;;;4971001;28;20427;-75
2022/10/29 05:21:11;;;;;;;9.50;4.38;;;;;;;;;;4978593;28;20045;-74
2022/10/29 05:23:56;;;;;;;12.18;4.03;;;;;;;;;;4991874;28;20054;-73
2022/10/29 05:26:42;;;;;;;12.18;4.18;;;;;;;;;;4978683;28;20113;-73
2022/10/29 05:29:27;;;;;;;13.32;4.18;;;;;;;;;;4978894;28;20093;-72
2022/10/29 05:32:13;;;;;;;14.07;4.70;;;;;;;;;;4978153;28;20030;-74
2022/10/29 05:34:58;;;;;;;9.43;3.63;;;;;;;;;;4978056;28;20042;-78
2022/10/29 05:37:49;;;;;;;14.10;5.03;;;;;;;;;;4978290;28;20484;-76
2022/10/29 05:40:34;;;;;;;11.88;5.15;;;;;;;;;;5005273;28;20469;-76
2022/10/29 05:43:19;;;;;;;9.35;4.00;;;;;;;;;;4992080;28;20096;-77
2022/10/29 05:46:04;;;;;;;11.43;4.15;;;;;;;;;;4991549;28;20026;-76
2022/10/29 05:48:50;;;;;;;12.18;4.22;;;;;;;;;;4978226;28;20510;-78
2022/10/29 05:51:35;;;;;;;12.98;4.80;;;;;;;;;;4977952;28;20482;-78
2022/10/29 05:54:20;;;;;;;13.90;4.88;;;;;;;;;;4977986;28;20421;-83
2022/10/29 05:57:05;;;;;;;14.30;4.68;;;;;;;;;;4991546;28;20076;-77
2022/10/29 05:59:50;;;;;;;14.02;4.43;;;;;;;;;;4991884;28;20026;-76
2022/10/29 06:02:36;;;;;;;13.07;5.57;;;;;;;;;;4991903;28;20474;-77
2022/10/29 06:05:21;;;;;;;16.95;5.45;;;;;;;;;;4992215;28;20077;-76
2022/10/29 06:08:07;;;;;;;11.02;4.18;;;;;;;;;;4977977;28;20026;-76
2022/10/29 06:10:52;;;;;;;11.82;4.95;;;;;;;;;;4991988;28;20057;-74
2022/10/29 06:13:38;;;;;;;10.93;4.50;;;;;;;;;;4978192;28;20385;-77
2022/10/29 06:16:23;;;;;;;12.25;4.18;;;;;;;;;;4983590;28;20034;-78
2022/10/29 06:19:08;;;;;;;13.95;5.72;;;;;;;;;;4979866;28;20034;-75
2022/10/29 06:21:53;;;;;;;13.02;4.68;;;;;;;;;;4977724;28;20069;-76
2022/10/29 06:24:38;;;;;;;9.85;3.92;;;;;;;;;;4978517;28;20034;-76
2022/10/29 06:27:24;;;;;;;11.20;4.75;;;;;;;;;;4991660;28;20022;-75
2022/10/29 06:30:10;;;;;;;14.35;5.38;;;;;;;;;;4977618;28;20347;-77
2022/10/29 06:32:55;;;;;;;10.05;5.28;;;;;;;;;;4990596;28;20164;-75
2022/10/29 06:35:40;;;;;;;11.88;4.97;;;;;;;;;;4984345;28;20470;-76
2022/10/29 06:38:26;;;;;;;10.52;4.80;;;;;;;;;;4990409;28;20034;-75
2022/10/29 06:41:11;;;;;;;13.07;4.85;;;;;;;;;;5004413;28;20033;-76
2022/10/29 06:43:56;;;;;;;13.30;5.03;;;;;;;;;;4990261;28;20180;-75
2022/10/29 06:46:42;;;;;;;13.93;4.95;;;;;;;;;;4991236;28;20064;-76
2022/10/29 06:49:27;;;;;;;13.80;4.78;;;;;;;;;;4990987;28;20053;-76
2022/10/29 06:52:12;;;;;;;15.77;5.40;;;;;;;;;;4985232;28;20466;-76
2022/10/29 06:54:57;;;;;;;9.93;4.47;;;;;;;;;;4973643;28;20037;-75
2022/10/29 06:57:42;;;;;;;12.20;6.38;;;;;;;;;;4990941;28;20433;-76
2022/10/29 07:00:28;;;;;;;13.07;4.70;;;;;;;;;;4976978;28;20045;-74
2022/10/29 07:03:17;;;;;;;15.40;6.03;;;;;;;;;;4990928;28;20035;-74
2022/10/29 07:06:03;;;;;;;14.57;4.32;;;;;;;;;;4977323;28;20027;-76
2022/10/29 07:08:48;;;;;;;12.48;4.38;;;;;;;;;;4990123;28;20499;-83
2022/10/29 07:11:33;;;;;;;14.45;5.65;;;;;;;;;;4976947;28;20026;-75
2022/10/29 07:14:18;;;;;;;13.32;4.97;;;;;;;;;;4976270;28;20525;-74
2022/10/29 07:17:04;;;;;;;10.55;4.80;;;;;;;;;;4983805;28;20449;-74
2022/10/29 07:19:49;;;;;;;10.80;4.45;;;;;;;;;;4985386;28;20019;-75
2022/10/29 07:22:34;;;;;;;11.27;5.30;;;;;;;;;;4988935;28;20081;-76
2022/10/29 07:25:19;;;;;;;11.15;4.95;;;;;;;;;;4989793;28;20046;-76
2022/10/29 07:28:06;;;;;;;15.88;4.75;;;;;;;;;;4977310;28;20161;-76
2022/10/29 07:30:52;;;;;;;15.80;5.25;;;;;;;;;;5003306;28;20034;-76
2022/10/29 07:33:37;;;;;;;10.68;4.47;;;;;;;;;;4989774;28;20105;-75
2022/10/29 07:36:22;;;;;;;19.05;5.63;;;;;;;;;;4975379;28;20045;-77
2022/10/29 07:39:08;;;;;;;11.68;4.43;;;;;;;;;;4989198;28;20370;-75
2022/10/29 07:41:53;;;;;;;13.38;4.47;;;;;;;;;;4989301;28;20489;-76
2022/10/29 07:44:38;;;;;;;10.88;4.55;;;;;;;;;;4976820;28;20046;-82
2022/10/29 07:47:23;;;;;;;12.27;5.28;;;;;;;;;;4990312;28;20050;-83
2022/10/29 07:50:09;;;;;;;13.00;5.10;;;;;;;;;;4990643;28;20082;-81
2022/10/29 07:52:54;;;;;;;10.90;5.30;;;;;;;;;;4976161;28;20022;-81
2022/10/29 07:55:39;;;;;;;14.25;5.38;;;;;;;;;;4983503;28;20481;-82
2022/10/29 07:58:25;;;;;;;12.38;4.60;;;;;;;;;;4990351;28;20022;-82
2022/10/29 08:01:10;;;;;;;13.32;4.82;;;;;;;;;;5003872;28;20453;-85
2022/10/29 08:03:55;;;;;;;17.08;5.03;;;;;;;;;;4976632;28;20037;-76
2022/10/29 08:06:40;;;;;;;11.52;5.20;;;;;;;;;;5002929;28;20038;-77
2022/10/29 08:09:25;;;;;;;16.20;4.82;;;;;;;;;;4989942;28;20034;-76
2022/10/29 08:12:11;;;;;;;10.20;4.13;;;;;;;;;;4976048;28;20030;-77
2022/10/29 08:14:56;;;;;;;13.70;5.22;;;;;;;;;;4975968;28;20409;-77
2022/10/29 08:17:41;;;;;;;9.52;4.57;;;;;;;;;;4992232;28;20029;-77
2022/10/29 08:20:28;;;;;;;6.93;4.05;;;;;;;;;;4976459;28;20022;-79
2022/10/29 08:23:13;;;;;;;9.38;4.32;;;;;;;;;;4975368;28;20054;-74
2022/10/29 08:25:58;;;;;;;12.95;4.63;;;;;;;;;;4976301;28;20049;-77
2022/10/29 08:28:44;;;;;;;13.02;4.22;;;;;;;;;;4989086;28;20050;-76
2022/10/29 08:31:29;;;;;;;13.23;4.97;;;;;;;;;;5003565;28;20493;-74
2022/10/29 08:34:14;;;;;;;21.65;5.90;;;;;;;;;;4989527;28;20074;-74
2022/10/29 08:37:00;;;;;;;13.98;4.20;;;;;;;;;;4981353;28;20433;-78
2022/10/29 08:39:45;;;;;;;9.85;4.82;;;;;;;;;;4977793;28;20033;-86
2022/10/29 08:42:30;;;;;;;9.70;4.05;;;;;;;;;;4989576;28;20084;-85
2022/10/29 08:45:16;;;;;;;10.13;4.13;;;;;;;;;;5004527;28;20510;-84
2022/10/29 08:48:07;;;;;;;16.48;5.43;;;;;;;;;;4990155;28;20096;-85
2022/10/29 08:50:57;;;;;;;12.07;4.53;;;;;;;;;;5004015;28;20109;-85
2022/10/29 08:53:47;;;;;;;12.98;3.95;;;;;;;;;;4990625;28;20029;-86
2022/10/29 08:56:32;;;;;;;;;;;;;;;;;;4983896;28;20041;-77
2022/10/29 08:59:19;;;;;;;15.70;5.07;;;;;;;;;;4992774;28;20330;-75
2022/10/29 09:02:07;;;;;;;16.42;5.55;;;;;;;;;;4979335;28;20481;-78
2022/10/29 09:04:53;;;;;;;14.55;4.90;;;;;;;;;;5005746;28;20069;-78
2022/10/29 09:07:45;;;;;;;13.00;4.50;;;;;;;;;;4992426;28;20051;-78
2022/10/29 09:10:46;;;;;;;13.90;4.53;;;;;;;;;;4992417;28;20026;-77
2022/10/29 09:13:34;;;;;;;13.15;4.80;;;;;;;;;;4978257;28;20022;-78
2022/10/29 09:16:33;;;;;;;8.80;3.72;;;;;;;;;;4999690;28;20042;-73
2022/10/29 09:19:23;;;;;;;15.60;4.63;;;;;;;;;;4981917;28;20521;-82
2022/10/29 09:22:19;;;;;;;14.05;4.60;;;;;;;;;;4989770;28;20185;-85
2022/10/29 09:25:16;;;;;;;11.88;3.88;;;;;;;;;;4991292;28;20524;-84
2022/10/29 09:28:01;;;;;;;11.85;4.53;;;;;;;;;;4982917;28;20466;-84
2022/10/29 09:31:05;;;;;;;11.45;3.63;;;;;;;;;;4977991;28;20034;-84
2022/10/29 09:33:51;;;;;;;12.30;5.18;;;;;;;;;;4992801;28;20757;-74
2022/10/29 09:36:36;;;;;;;12.60;5.00;;;;;;;;;;4978755;28;20065;-77
2022/10/29 09:39:34;;;;;;;14.77;4.22;;;;;;;;;;5005664;28;20058;-76
2022/10/29 09:42:23;;;;;;;15.68;4.28;;;;;;;;;;5001495;28;20410;-77
2022/10/29 09:45:13;;;;;;;20.45;5.13;;;;;;;;;;4978136;28;20031;-76
2022/10/29 09:48:31;;;;;;;9.00;4.25;;;;;;;;;;4992465;28;20023;-76
2022/10/29 09:51:40;;;;;;;11.65;3.88;;;;;;;;;;4946019;28;20496;-77
2022/10/29 09:54:27;;;;;;;11.65;4.80;;;;;;;;;;4983548;28;20042;-76
2022/10/29 09:57:16;;;;;;;11.95;3.78;;;;;;;;;;4992415;28;20033;-85
2022/10/29 10:00:04;;;;;;;12.68;4.63;;;;;;;;;;4991932;28;20022;-86
2022/10/29 10:03:02;;;;;;;12.43;4.65;;;;;;;;;;4999291;28;20023;-86
2022/10/29 10:06:07;;;;;;;11.55;4.65;;;;;;;;;;4996375;28;20038;-84
2022/10/29 10:09:03;;;;;;;11.80;4.72;;;;;;;;;;4987499;28;20027;-85
2022/10/29 10:11:51;;;;;;;19.45;5.10;;;;;;;;;;4988973;28;20027;-76
2022/10/29 10:14:36;;;;;;;11.48;5.03;;;;;;;;;;4978485;28;20026;-81
2022/10/29 10:17:22;;;;;;;17.90;4.80;;;;;;;;;;4991348;28;20024;-80
2022/10/29 10:20:24;;;;;;;9.95;4.07;;;;;;;;;;4991437;28;20022;-79
2022/10/29 10:23:26;;;;;;;15.10;4.50;;;;;;;;;;4989978;28;20046;-78
2022/10/29 10:26:30;;;;;;;13.95;4.65;;;;;;;;;;4978041;28;20018;-79
2022/10/29 10:29:22;;;;;;;15.32;5.07;;;;;;;;;;4977070;28;20030;-75
2022/10/29 10:32:09;;;;;;;13.30;4.50;;;;;;;;;;4974115;28;20383;-77
2022/10/29 10:34:54;;;;;;;12.82;4.88;;;;;;;;;;4987812;28;20041;-77
2022/10/29 10:37:39;;;;;;;12.35;5.10;;;;;;;;;;4982943;28;20062;-77
2022/10/29 10:40:25;;;;;;;13.48;3.75;;;;;;;;;;4977873;28;20029;-77
2022/10/29 10:43:19;;;;;;;17.52;4.70;;;;;;;;;;4990990;28;20031;-78
2022/10/29 10:46:10;;;;;;;9.50;3.80;;;;;;;;;;4990714;28;20109;-79
2022/10/29 10:48:56;;;;;;;14.75;3.88;;;;;;;;;;4990489;28;20034;-84
2022/10/29 10:51:43;;;;;;;14.80;4.45;;;;;;;;;;4977953;28;20093;-77
2022/10/29 10:54:35;;;;;;;18.95;4.80;;;;;;;;;;4975108;28;20133;-74
2022/10/29 10:57:23;;;;;;;17.30;4.22;;;;;;;;;;4991147;28;20457;-76
2022/10/29 11:00:14;;;;;;;15.07;4.50;;;;;;;;;;4990198;28;20033;-74
2022/10/29 11:03:03;;;;;;;12.38;4.75;;;;;;;;;;4976924;28;20033;-78
2022/10/29 11:05:56;;;;;;;16.15;5.50;;;;;;;;;;4990288;28;20117;-75
2022/10/29 11:08:45;;;;;;;17.35;4.95;;;;;;;;;;4990485;28;20040;-79
2022/10/29 11:11:30;;;;;;;;;;;;;;;;;;4976495;28;20080;-79
2022/10/29 11:14:35;;;;;;;11.20;5.22;;;;;;;;;;4975571;28;19922;-80
2022/10/29 11:17:39;;;;;;;11.82;4.75;;;;;;;;;;4989299;28;20049;-79
2022/10/29 11:20:29;;;;;;;13.73;5.07;;;;;;;;;;4986874;28;20041;-80
2022/10/29 11:23:21;;;;;;;13.68;4.70;;;;;;;;;;4986919;28;20065;-79
2022/10/29 11:26:32;;;;;;;11.23;4.20;;;;;;;;;;5002341;28;20037;-75
2022/10/29 11:29:20;;;;;;;10.35;4.13;;;;;;;;;;4989544;28;20611;-74
2022/10/29 11:32:11;;;;;;;13.25;4.65;;;;;;;;;;4963302;28;20049;-75
2022/10/29 11:34:59;;;;;;;13.07;3.78;;;;;;;;;;4989530;28;20505;-74
2022/10/29 11:37:58;;;;;;;12.10;4.57;;;;;;;;;;4962847;28;20026;-74
2022/10/29 11:40:43;;;;;;;;;;;;;;;;;;5001027;28;20033;-74
2022/10/29 11:43:29;;;;;;;13.10;4.75;;;;;;;;;;4977062;28;19965;-75
2022/10/29 11:46:52;;;;;;;16.48;4.75;;;;;;;;;;4989503;28;20470;-80
2022/10/29 11:49:43;;;;;;;11.05;4.60;;;;;;;;;;4909972;29;20043;-78
2022/10/29 11:52:33;;;;;;;17.95;4.80;;;;;;;;;;4985800;28;20030;-78
2022/10/29 11:55:22;;;;;;;11.18;4.30;;;;;;;;;;4988678;28;20556;-78
2022/10/29 11:58:08;;;;;;;;;;;;;;;;;;4976911;28;20026;-79
2022/10/29 12:01:12;;;;;;;14.75;4.22;;;;;;;;;;4988317;28;20052;-78
2022/10/29 12:04:03;;;;;;;9.13;3.83;;;;;;;;;;4964951;28;20537;-78
2022/10/29 12:06:53;;;;;;;9.80;3.90;;;;;;;;;;5002761;28;20025;-80
2022/10/29 12:09:59;;;;;;;21.25;3.90;;;;;;;;;;5002672;28;20565;-78
2022/10/29 12:12:44;;;;;;;13.48;4.28;;;;;;;;;;4975943;28;20022;-79
2022/10/29 12:15:34;;;;;;;11.65;4.32;;;;;;;;;;4961850;28;20030;-79
2022/10/29 12:18:39;;;;;;;15.48;4.63;;;;;;;;;;4971173;28;20042;-79
2022/10/29 12:21:24;;;;;;;16.42;3.83;;;;;;;;;;5002795;28;20030;-78
2022/10/29 12:24:29;;;;;;;19.55;4.38;;;;;;;;;;5003084;28;20049;-76
2022/10/29 12:27:22;;;;;;;11.43;4.20;;;;;;;;;;4975402;28;20026;-78
2022/10/29 12:30:08;;;;;;;14.13;3.58;;;;;;;;;;4982734;28;20026;-80
2022/10/29 12:33:06;;;;;;;10.63;3.47;;;;;;;;;;4977983;28;20117;-80
2022/10/29 12:35:54;;;;;;;15.13;3.88;;;;;;;;;;4974322;28;20401;-79
2022/10/29 12:38:39;;;;;;;10.90;3.65;;;;;;;;;;5002654;28;20037;-78
2022/10/29 12:41:28;;;;;;;11.50;3.40;;;;;;;;;;5003203;28;20030;-86
2022/10/29 12:44:35;;;;;;;15.32;4.18;;;;;;;;;;5001229;28;20034;-84
2022/10/29 12:47:39;;;;;;;9.18;2.67;;;;;;;;;;4989105;28;20062;-85
2022/10/29 12:50:45;;;;;;;10.60;3.85;;;;;;;;;;4989493;28;20042;-86
2022/10/29 12:53:49;;;;;;;11.07;3.50;;;;;;;;;;4988891;28;20022;-85
2022/10/29 12:56:35;;;;;;;22.58;4.05;;;;;;;;;;5001139;28;20026;-78
2022/10/29 12:59:23;;;;;;;15.23;4.10;;;;;;;;;;4975135;28;20052;-78
2022/10/29 13:02:14;;;;;;;11.77;4.18;;;;;;;;;;4988776;28;20189;-78
2022/10/29 13:05:05;;;;;;;13.00;4.72;;;;;;;;;;4972134;28;20065;-78
2022/10/29 13:08:00;;;;;;;13.88;5.32;;;;;;;;;;4988560;28;20018;-79
2022/10/29 13:10:49;;;;;;;15.10;5.60;;;;;;;;;;4989322;28;20070;-78
2022/10/29 13:13:34;;;;;;;;;;;;;;;;;;4975622;28;20026;-79
2022/10/29 13:16:23;;;;;;;18.38;5.97;;;;;;;;;;4975657;28;20381;-78
2022/10/29 13:19:16;;;;;;;17.50;5.75;;;;;;;;;;4974667;28;20597;-73
2022/10/29 13:22:10;;;;;;;16.58;5.38;;;;;;;;;;4988815;28;20031;-74
2022/10/29 13:25:14;;;;;;;21.50;5.28;;;;;;;;;;5002066;28;20129;-73
2022/10/29 13:28:00;;;;;;;14.80;4.90;;;;;;;;;;4979878;28;20351;-73
2022/10/29 13:31:11;;;;;;;15.05;5.50;;;;;;;;;;4994133;28;20425;-74
2022/10/29 13:33:56;;;;;;;10.77;4.28;;;;;;;;;;4974992;28;20635;-77
2022/10/29 13:36:42;;;;;;;15.70;4.85;;;;;;;;;;4983157;28;20034;-75
2022/10/29 13:39:27;;;;;;;21.17;5.43;;;;;;;;;;5002199;28;20034;-76
2022/10/29 13:42:12;;;;;;;23.98;5.57;;;;;;;;;;5006329;28;20113;-75
2022/10/29 13:44:58;;;;;;;13.25;4.82;;;;;;;;;;4978846;28;20022;-75
2022/10/29 13:47:44;;;;;;;17.13;6.15;;;;;;;;;;4992661;28;20036;-76
2022/10/29 13:50:30;;;;;;;17.38;5.47;;;;;;;;;;4991944;28;20023;-74
2022/10/29 13:53:16;;;;;;;14.52;6.20;;;;;;;;;;4980946;28;20039;-79
2022/10/29 13:56:03;;;;;;;17.38;6.20;;;;;;;;;;4994616;28;20037;-78
2022/10/29 13:58:50;;;;;;;12.30;5.03;;;;;;;;;;4991697;28;20114;-78
2022/10/29 14:01:35;;;;;;;13.88;4.97;;;;;;;;;;4977767;28;20394;-78
2022/10/29 14:04:27;;;;;;;15.55;7.00;;;;;;;;;;4991543;28;20605;-78
2022/10/29 14:07:15;;;;;;;15.02;5.03;;;;;;;;;;4991647;28;20030;-77
2022/10/29 14:10:05;;;;;;;21.10;7.90;;;;;;;;;;4991195;28;20157;-79
2022/10/29 14:12:54;;;;;;;18.90;7.68;;;;;;;;;;4978446;28;20347;-87
2022/10/29 14:15:57;;;;;;;18.75;5.53;;;;;;;;;;4979831;28;20393;-86
2022/10/29 14:18:44;;;;;;;12.93;5.18;;;;;;;;;;5004330;28;20030;-87
2022/10/29 14:21:35;;;;;;;11.38;4.88;;;;;;;;;;4991996;28;20070;-85
2022/10/29 14:24:21;;;;;;;13.90;4.30;;;;;;;;;;4977013;28;20031;-85
2022/10/29 14:27:07;;;;;;;11.25;5.03;;;;;;;;;;4988897;28;20026;-86
2022/10/29 14:29:52;;;;;;;14.75;5.20;;;;;;;;;;4985940;28;20023;-76
2022/10/29 14:32:38;;;;;;;11.20;4.20;;;;;;;;;;4991407;28;20038;-86
2022/10/29 14:35:23;;;;;;;11.57;5.43;;;;;;;;;;4991681;28;20440;-85
2022/10/29 14:38:10;;;;;;;13.82;4.55;;;;;;;;;;4991219;28;20026;-84
2022/10/29 14:40:55;;;;;;;13.30;4.93;;;;;;;;;;4995499;28;20526;-85
2022/10/29 14:43:41;;;;;;;15.63;5.20;;;;;;;;;;4972480;28;20033;-85
2022/10/29 14:46:27;;;;;;;14.05;5.18;;;;;;;;;;4979964;28;20116;-75
2022/10/29 14:49:18;;;;;;;11.73;4.47;;;;;;;;;;4990827;28;20508;-84
2022/10/29 14:52:06;;;;;;;12.80;4.80;;;;;;;;;;4982597;28;20465;-75
2022/10/29 14:54:52;;;;;;;12.90;5.50;;;;;;;;;;4991024;28;20533;-76
2022/10/29 14:57:39;;;;;;;14.02;4.80;;;;;;;;;;4990840;28;20030;-76
2022/10/29 15:00:29;;;;;;;17.23;5.53;;;;;;;;;;4991445;28;20033;-76
2022/10/29 15:03:17;;;;;;;12.90;5.10;;;;;;;;;;5004175;28;20030;-75
2022/10/29 15:06:25;;;;;;;13.98;5.30;;;;;;;;;;5004783;28;20169;-76
2022/10/29 15:09:18;;;;;;;14.15;6.90;;;;;;;;;;4976467;28;20033;-80
2022/10/29 15:12:16;;;;;;;17.63;5.85;;;;;;;;;;4986311;28;20007;-79
2022/10/29 15:15:09;;;;;;;21.88;6.65;;;;;;;;;;4989293;28;20073;-79
2022/10/29 15:18:24;;;;;;;13.93;5.38;;;;;;;;;;4989591;28;20591;-78
2022/10/29 15:21:09;;;;;;;17.80;6.45;;;;;;;;;;4988384;28;20034;-79
2022/10/29 15:23:58;;;;;;;21.95;7.43;;;;;;;;;;4988986;28;20559;-79
2022/10/29 15:26:47;;;;;;;22.13;7.90;;;;;;;;;;4984474;28;20077;-78
2022/10/29 15:29:36;;;;;;;14.40;6.25;;;;;;;;;;4976664;28;20022;-78
2022/10/29 15:32:21;;;;;;;22.05;6.65;;;;;;;;;;4976434;28;20098;-78
2022/10/29 15:35:08;;;;;;;19.98;6.72;;;;;;;;;;4983928;28;20591;-77
2022/10/29 15:37:53;;;;;;;14.20;5.85;;;;;;;;;;4983517;28;20076;-79
2022/10/29 15:40:42;;;;;;;14.65;6.03;;;;;;;;;;4989083;28;20142;-77
2022/10/29 15:43:28;;;;;;;15.18;5.43;;;;;;;;;;4990729;28;20030;-79
2022/10/29 15:46:34;;;;;;;14.38;5.85;;;;;;;;;;4974224;28;20041;-76
2022/10/29 15:49:21;;;;;;;14.50;5.68;;;;;;;;;;4987846;28;20358;-76
2022/10/29 15:52:10;;;;;;;18.42;5.45;;;;;;;;;;4976844;28;20076;-76
2022/10/29 15:54:55;;;;;;;16.80;6.22;;;;;;;;;;4985085;28;20074;-75
2022/10/29 15:57:41;;;;;;;16.38;6.40;;;;;;;;;;4989233;28;20038;-76
2022/10/29 16:00:27;;;;;;;15.27;6.15;;;;;;;;;;5003096;28;20763;-78
2022/10/29 16:03:12;;;;;;;14.10;6.15;;;;;;;;;;4975992;28;20482;-74
2022/10/29 16:06:02;;;;;;;14.68;6.35;;;;;;;;;;5003299;28;20045;-73
2022/10/29 16:08:54;;;;;;;15.90;5.95;;;;;;;;;;4976112;28;20384;-74
2022/10/29 16:11:39;;;;;;;18.88;5.85;;;;;;;;;;4989113;28;20033;-74
2022/10/29 16:14:24;;;;;;;17.15;8.25;;;;;;;;;;4976466;28;20478;-73
2022/10/29 16:17:14;;;;;;;15.32;6.75;;;;;;;;;;4989054;28;20024;-74
2022/10/29 16:19:59;;;;;;;19.17;8.00;;;;;;;;;;4975476;28;20505;-74
2022/10/29 16:22:45;;;;;;;16.15;7.78;;;;;;;;;;4975984;28;20045;-78
2022/10/29 16:25:30;;;;;;;12.55;6.40;;;;;;;;;;4988995;28;20030;-77
2022/10/29 16:28:15;;;;;;;18.50;7.57;;;;;;;;;;4989592;28;20108;-78
2022/10/29 16:31:01;;;;;;;15.10;7.50;;;;;;;;;;4983699;28;20113;-77
2022/10/29 16:33:46;;;;;;;16.15;7.30;;;;;;;;;;4989563;28;20056;-77
2022/10/29 16:36:32;;;;;;;17.52;6.75;;;;;;;;;;4989275;28;20030;-82
2022/10/29 16:39:17;;;;;;;24.20;11.25;;;;;;;;;;4989942;28;20025;-76